Time;durP1;ratioP1;P1;durP2;ratioP2;P2;SDS_P1;SDS_P2;PMS_P1;PMS_P2;Temp;Humidity;BMP_temperature;BMP_pressure;BME280_temperature;BME280_humidity;BME280_pressure;Samples;Min_cycle;Max_cycle;Signal;HPM_P1;HPM_P2
2023/09/13 00:00:59;;;;;;;6.97;4.45;;;;;;;;;;5097134;28;20016;-71
2023/09/13 00:03:25;;;;;;;6.75;4.40;;;;;;;;;;5089371;28;20941;-70
2023/09/13 00:05:51;;;;;;;6.60;4.28;;;;;;;;;;5094973;28;20499;-70
2023/09/13 00:08:16;;;;;;;6.68;4.97;;;;;;;;;;5101406;28;20024;-74
2023/09/13 00:10:44;;;;;;;9.43;4.93;;;;;;;;;;5102287;28;20047;-75
2023/09/13 00:13:09;;;;;;;6.43;4.72;;;;;;;;;;5100472;28;21035;-71
2023/09/13 00:15:39;;;;;;;8.23;4.43;;;;;;;;;;5099244;28;20030;-71
2023/09/13 00:18:05;;;;;;;9.70;5.10;;;;;;;;;;5101580;28;20019;-73
2023/09/13 00:20:30;;;;;;;6.43;4.93;;;;;;;;;;5097254;28;20042;-71
2023/09/13 00:22:55;;;;;;;7.55;5.45;;;;;;;;;;5098996;27;20063;-71
2023/09/13 00:25:21;;;;;;;10.70;4.95;;;;;;;;;;5103841;28;20053;-71
2023/09/13 00:27:46;;;;;;;7.38;4.95;;;;;;;;;;5097632;28;20027;-71
2023/09/13 00:30:11;;;;;;;12.13;7.80;;;;;;;;;;5096450;27;20031;-76
2023/09/13 00:32:37;;;;;;;17.65;11.80;;;;;;;;;;5100427;28;20110;-70
2023/09/13 00:35:03;;;;;;;14.60;9.77;;;;;;;;;;5102661;28;20387;-71
2023/09/13 00:37:28;;;;;;;12.68;9.48;;;;;;;;;;5102627;28;20732;-71
2023/09/13 00:39:53;;;;;;;16.45;10.93;;;;;;;;;;5102454;28;20058;-72
2023/09/13 00:42:19;;;;;;;11.00;6.78;;;;;;;;;;5100853;28;20019;-75
2023/09/13 00:44:44;;;;;;;6.03;5.03;;;;;;;;;;5102262;28;20028;-71
2023/09/13 00:47:11;;;;;;;7.20;4.45;;;;;;;;;;5102979;27;20031;-72
2023/09/13 00:49:36;;;;;;;6.15;4.60;;;;;;;;;;5101796;28;20074;-71
2023/09/13 00:52:02;;;;;;;9.20;5.13;;;;;;;;;;5099656;28;20418;-75
2023/09/13 00:54:27;;;;;;;9.27;5.28;;;;;;;;;;5099865;28;20445;-72
2023/09/13 00:56:52;;;;;;;7.18;5.07;;;;;;;;;;5101786;28;20019;-70
2023/09/13 00:59:18;;;;;;;5.03;4.47;;;;;;;;;;5091435;28;20108;-71
2023/09/13 01:01:44;;;;;;;10.88;4.47;;;;;;;;;;5101295;28;20027;-70
2023/09/13 01:04:09;;;;;;;7.05;4.10;;;;;;;;;;5099085;28;20038;-71
2023/09/13 01:06:36;;;;;;;7.70;4.82;;;;;;;;;;5100271;28;20058;-71
2023/09/13 01:09:03;;;;;;;6.30;4.38;;;;;;;;;;5101452;28;20042;-71
2023/09/13 01:11:29;;;;;;;6.15;4.50;;;;;;;;;;5094219;28;20027;-71
2023/09/13 01:13:54;;;;;;;7.88;4.25;;;;;;;;;;5100194;28;20039;-70
2023/09/13 01:16:20;;;;;;;6.20;4.10;;;;;;;;;;5094360;28;20020;-69
2023/09/13 01:18:58;;;;;;;6.57;4.43;;;;;;;;;;5089033;28;20138;-69
2023/09/13 01:21:43;;;;;;;5.88;4.10;;;;;;;;;;5093038;28;20346;-70
2023/09/13 01:24:23;;;;;;;6.70;4.28;;;;;;;;;;5091416;28;20032;-70
2023/09/13 01:26:51;;;;;;;5.75;4.18;;;;;;;;;;5098912;28;20069;-70
2023/09/13 01:29:17;;;;;;;6.15;4.25;;;;;;;;;;5101911;28;20024;-74
2023/09/13 01:31:43;;;;;;;6.32;4.82;;;;;;;;;;5098775;28;20027;-69
2023/09/13 01:34:08;;;;;;;5.68;4.60;;;;;;;;;;5099093;28;21778;-69
2023/09/13 01:36:34;;;;;;;5.40;3.88;;;;;;;;;;5097421;28;20016;-68
2023/09/13 01:39:00;;;;;;;7.78;3.92;;;;;;;;;;5097570;28;20441;-73
2023/09/13 01:41:27;;;;;;;5.40;3.78;;;;;;;;;;5096129;28;20135;-70
2023/09/13 01:43:54;;;;;;;5.75;4.00;;;;;;;;;;5098532;28;20153;-73
2023/09/13 01:46:20;;;;;;;5.20;3.92;;;;;;;;;;5093693;28;20023;-68
2023/09/13 01:48:46;;;;;;;6.38;4.00;;;;;;;;;;5096495;28;20034;-69
2023/09/13 01:51:12;;;;;;;5.00;4.03;;;;;;;;;;5097856;28;20108;-70
2023/09/13 01:53:44;;;;;;;5.35;4.07;;;;;;;;;;5090958;28;20122;-70
2023/09/13 01:56:10;;;;;;;5.50;3.70;;;;;;;;;;5101089;28;20028;-70
2023/09/13 01:58:35;;;;;;;7.63;5.20;;;;;;;;;;5099092;28;20019;-70
2023/09/13 02:01:00;;;;;;;5.15;4.40;;;;;;;;;;5100182;28;20036;-75
2023/09/13 02:03:26;;;;;;;6.30;3.92;;;;;;;;;;5099219;28;20110;-71
2023/09/13 02:05:51;;;;;;;5.53;4.32;;;;;;;;;;5101350;28;20035;-69
2023/09/13 02:08:16;;;;;;;4.97;3.50;;;;;;;;;;5101054;28;21097;-73
2023/09/13 02:10:42;;;;;;;4.88;3.97;;;;;;;;;;5098990;28;20046;-72
2023/09/13 02:13:07;;;;;;;8.57;4.18;;;;;;;;;;5097854;28;20030;-69
2023/09/13 02:15:38;;;;;;;9.32;4.40;;;;;;;;;;5090544;28;20028;-69
2023/09/13 02:18:03;;;;;;;4.70;3.92;;;;;;;;;;5097913;28;20042;-69
2023/09/13 02:20:28;;;;;;;8.27;4.53;;;;;;;;;;5093694;28;20373;-70
2023/09/13 02:22:54;;;;;;;6.07;4.18;;;;;;;;;;5090809;28;20164;-70
2023/09/13 02:25:19;;;;;;;5.10;3.88;;;;;;;;;;5097720;28;20087;-70
2023/09/13 02:27:44;;;;;;;6.30;4.40;;;;;;;;;;5099949;28;20024;-70
2023/09/13 02:30:10;;;;;;;7.07;4.13;;;;;;;;;;5099739;28;20687;-70
2023/09/13 02:32:35;;;;;;;6.22;4.47;;;;;;;;;;5100001;28;20080;-73
2023/09/13 02:35:01;;;;;;;5.28;4.30;;;;;;;;;;5100222;28;20020;-72
2023/09/13 02:37:27;;;;;;;4.22;3.67;;;;;;;;;;5099586;28;20034;-69
2023/09/13 02:39:53;;;;;;;5.65;4.28;;;;;;;;;;5099314;28;20054;-68
2023/09/13 02:42:18;;;;;;;7.13;4.15;;;;;;;;;;5083926;28;20031;-74
2023/09/13 02:44:45;;;;;;;8.30;4.15;;;;;;;;;;5086364;28;20048;-68
2023/09/13 02:47:10;;;;;;;4.60;3.80;;;;;;;;;;5087853;28;20032;-74
2023/09/13 02:49:36;;;;;;;6.95;4.25;;;;;;;;;;5093807;28;20031;-73
2023/09/13 02:52:01;;;;;;;4.93;4.10;;;;;;;;;;5097279;28;20039;-71
2023/09/13 02:54:26;;;;;;;4.35;3.92;;;;;;;;;;5098454;28;20031;-75
2023/09/13 02:56:54;;;;;;;6.88;4.47;;;;;;;;;;5096369;28;20042;-71
2023/09/13 02:59:20;;;;;;;8.10;4.25;;;;;;;;;;5098770;28;20686;-70
2023/09/13 03:01:45;;;;;;;5.72;4.07;;;;;;;;;;5100026;28;20051;-76
2023/09/13 03:04:11;;;;;;;7.60;4.55;;;;;;;;;;5099918;28;20423;-70
2023/09/13 03:06:38;;;;;;;5.15;3.75;;;;;;;;;;5098139;28;20070;-75
2023/09/13 03:09:04;;;;;;;5.60;4.18;;;;;;;;;;5098585;28;20448;-72
2023/09/13 03:11:29;;;;;;;8.38;4.28;;;;;;;;;;5100903;28;20031;-74
2023/09/13 03:13:55;;;;;;;5.82;3.97;;;;;;;;;;5090479;28;20039;-72
2023/09/13 03:16:21;;;;;;;5.30;4.03;;;;;;;;;;5093336;28;20096;-72
2023/09/13 03:18:47;;;;;;;7.50;4.72;;;;;;;;;;5092346;28;20030;-71
2023/09/13 03:21:13;;;;;;;7.10;4.82;;;;;;;;;;5101252;28;20019;-71
2023/09/13 03:23:39;;;;;;;7.47;4.68;;;;;;;;;;5098310;28;20165;-74
2023/09/13 03:26:17;;;;;;;5.55;4.35;;;;;;;;;;5091055;28;20020;-74
2023/09/13 03:28:44;;;;;;;8.15;4.22;;;;;;;;;;5099800;28;20035;-69
2023/09/13 03:31:13;;;;;;;6.40;4.20;;;;;;;;;;5101070;28;20027;-70
2023/09/13 03:33:40;;;;;;;7.32;4.03;;;;;;;;;;5103012;28;20097;-71
2023/09/13 03:36:12;;;;;;;4.88;4.13;;;;;;;;;;5100466;27;20161;-69
2023/09/13 03:38:38;;;;;;;7.10;4.53;;;;;;;;;;5099273;28;20016;-71
2023/09/13 03:41:04;;;;;;;6.40;4.13;;;;;;;;;;5100587;28;20054;-73
2023/09/13 03:43:29;;;;;;;4.45;3.97;;;;;;;;;;5100774;28;20093;-72
2023/09/13 03:45:55;;;;;;;7.13;4.32;;;;;;;;;;5101924;28;20770;-70
2023/09/13 03:48:21;;;;;;;5.05;4.15;;;;;;;;;;5100193;28;20445;-72
2023/09/13 03:50:46;;;;;;;4.35;3.90;;;;;;;;;;5094806;28;20504;-69
2023/09/13 03:53:12;;;;;;;8.75;4.32;;;;;;;;;;5093375;28;20031;-73
2023/09/13 03:55:37;;;;;;;8.13;4.50;;;;;;;;;;5099357;28;20051;-69
2023/09/13 03:58:03;;;;;;;6.75;4.25;;;;;;;;;;5101753;28;20073;-68
2023/09/13 04:00:28;;;;;;;5.90;4.25;;;;;;;;;;5101174;28;20027;-67
2023/09/13 04:02:54;;;;;;;6.78;4.38;;;;;;;;;;5092189;27;20114;-72
2023/09/13 04:05:19;;;;;;;7.00;4.47;;;;;;;;;;5093459;28;20027;-70
2023/09/13 04:07:44;;;;;;;7.53;4.20;;;;;;;;;;5091207;28;21077;-73
2023/09/13 04:10:10;;;;;;;6.95;4.18;;;;;;;;;;5090676;28;20110;-70
2023/09/13 04:12:35;;;;;;;6.82;4.57;;;;;;;;;;5090739;28;20059;-71
2023/09/13 04:15:00;;;;;;;7.70;4.82;;;;;;;;;;5091110;28;20035;-71
2023/09/13 04:17:26;;;;;;;6.88;5.15;;;;;;;;;;5091047;28;20494;-71
2023/09/13 04:19:51;;;;;;;6.47;4.45;;;;;;;;;;5102283;28;20062;-70
2023/09/13 04:22:16;;;;;;;6.32;4.22;;;;;;;;;;5100692;28;20439;-70
2023/09/13 04:24:42;;;;;;;4.85;4.15;;;;;;;;;;5101361;28;20027;-70
2023/09/13 04:27:08;;;;;;;5.65;4.28;;;;;;;;;;5098406;28;20051;-71
2023/09/13 04:29:33;;;;;;;4.97;4.18;;;;;;;;;;5097559;28;20024;-71
2023/09/13 04:31:59;;;;;;;8.85;4.57;;;;;;;;;;5102101;28;20134;-73
2023/09/13 04:34:25;;;;;;;5.07;3.90;;;;;;;;;;5089100;28;20027;-72
2023/09/13 04:36:50;;;;;;;7.18;4.15;;;;;;;;;;5089408;28;20019;-72
2023/09/13 04:39:16;;;;;;;8.07;4.32;;;;;;;;;;5089904;28;20030;-72
2023/09/13 04:41:41;;;;;;;7.05;4.30;;;;;;;;;;5089145;28;20031;-71
2023/09/13 04:44:07;;;;;;;7.53;4.38;;;;;;;;;;5088043;28;20042;-74
2023/09/13 04:46:32;;;;;;;7.05;5.25;;;;;;;;;;5085401;28;20019;-72
2023/09/13 04:48:57;;;;;;;6.03;4.90;;;;;;;;;;5088635;28;20030;-72
2023/09/13 04:51:23;;;;;;;11.02;4.80;;;;;;;;;;5077531;27;20447;-70
2023/09/13 04:53:48;;;;;;;12.45;4.63;;;;;;;;;;5093937;28;20366;-69
2023/09/13 04:56:13;;;;;;;8.75;4.68;;;;;;;;;;5101104;28;20933;-69
2023/09/13 04:58:39;;;;;;;7.70;4.93;;;;;;;;;;5101192;28;20102;-70
2023/09/13 05:01:04;;;;;;;7.18;5.00;;;;;;;;;;5099010;28;20381;-72
2023/09/13 05:03:29;;;;;;;8.15;5.22;;;;;;;;;;5100200;28;20034;-70
2023/09/13 05:05:55;;;;;;;10.98;4.70;;;;;;;;;;5100130;28;20227;-70
2023/09/13 05:08:20;;;;;;;7.65;4.70;;;;;;;;;;5098721;28;20038;-72
2023/09/13 05:10:46;;;;;;;7.70;4.82;;;;;;;;;;5098533;28;20015;-70
2023/09/13 05:13:12;;;;;;;8.88;4.18;;;;;;;;;;5099247;28;20039;-71
2023/09/13 05:15:44;;;;;;;10.20;4.90;;;;;;;;;;5100236;28;20475;-70
2023/09/13 05:18:10;;;;;;;8.10;4.43;;;;;;;;;;5098984;28;20133;-71
2023/09/13 05:20:35;;;;;;;8.30;5.10;;;;;;;;;;5098721;28;20427;-72
2023/09/13 05:23:00;;;;;;;6.32;4.78;;;;;;;;;;5099254;28;20118;-73
2023/09/13 05:25:26;;;;;;;9.55;4.32;;;;;;;;;;5096159;28;20142;-72
2023/09/13 05:27:51;;;;;;;9.23;4.32;;;;;;;;;;5098922;28;20048;-69
2023/09/13 05:30:16;;;;;;;8.88;4.88;;;;;;;;;;5099225;28;20114;-74
2023/09/13 05:32:41;;;;;;;4.70;4.20;;;;;;;;;;5098553;28;20071;-70
2023/09/13 05:35:07;;;;;;;5.70;4.18;;;;;;;;;;5099665;28;20420;-70
2023/09/13 05:37:32;;;;;;;5.35;4.35;;;;;;;;;;5099816;28;20631;-72
2023/09/13 05:39:59;;;;;;;8.32;4.85;;;;;;;;;;5097868;28;20047;-70
2023/09/13 05:42:24;;;;;;;6.60;4.95;;;;;;;;;;5095297;28;21418;-70
2023/09/13 05:44:50;;;;;;;8.65;4.90;;;;;;;;;;5099652;28;20019;-71
2023/09/13 05:47:15;;;;;;;9.60;4.82;;;;;;;;;;5097203;28;20023;-72
2023/09/13 05:49:40;;;;;;;5.25;4.45;;;;;;;;;;5091033;28;20323;-74
2023/09/13 05:52:06;;;;;;;6.97;5.20;;;;;;;;;;5093725;28;20051;-72
2023/09/13 05:54:31;;;;;;;10.20;5.80;;;;;;;;;;5095461;28;20457;-70
2023/09/13 05:56:56;;;;;;;12.13;6.03;;;;;;;;;;5097618;28;20095;-74
2023/09/13 05:59:22;;;;;;;14.38;6.63;;;;;;;;;;5097427;28;20031;-72
2023/09/13 06:01:48;;;;;;;6.65;5.50;;;;;;;;;;5098255;28;20033;-71
2023/09/13 06:04:13;;;;;;;11.35;5.50;;;;;;;;;;5088878;28;20057;-72
2023/09/13 06:06:38;;;;;;;7.28;5.35;;;;;;;;;;5095678;28;20027;-73
2023/09/13 06:09:04;;;;;;;10.77;4.95;;;;;;;;;;5097320;28;20042;-73
2023/09/13 06:11:30;;;;;;;12.20;5.00;;;;;;;;;;5097329;28;20024;-75
2023/09/13 06:13:55;;;;;;;9.45;5.28;;;;;;;;;;5098465;28;20034;-76
2023/09/13 06:16:21;;;;;;;7.70;4.47;;;;;;;;;;5098821;28;20035;-72
2023/09/13 06:18:46;;;;;;;8.00;5.25;;;;;;;;;;5099309;28;20047;-73
2023/09/13 06:21:12;;;;;;;6.90;5.55;;;;;;;;;;5098939;28;20019;-72
2023/09/13 06:23:40;;;;;;;8.75;5.00;;;;;;;;;;5096724;28;20032;-73
2023/09/13 06:26:06;;;;;;;6.25;4.72;;;;;;;;;;5099852;28;20324;-73
2023/09/13 06:28:32;;;;;;;7.20;4.90;;;;;;;;;;5100742;28;20035;-75
2023/09/13 06:30:58;;;;;;;7.93;4.72;;;;;;;;;;5092423;28;20032;-74
2023/09/13 06:33:24;;;;;;;9.57;4.32;;;;;;;;;;5088402;28;20118;-72
2023/09/13 06:35:49;;;;;;;11.90;5.53;;;;;;;;;;5089757;28;20483;-72
2023/09/13 06:38:15;;;;;;;10.50;5.68;;;;;;;;;;5086880;28;20026;-71
2023/09/13 06:40:43;;;;;;;8.88;5.25;;;;;;;;;;5099345;28;20054;-75
2023/09/13 06:43:09;;;;;;;8.07;5.30;;;;;;;;;;5097390;28;20016;-72
2023/09/13 06:45:35;;;;;;;10.00;5.13;;;;;;;;;;5097114;28;20023;-74
2023/09/13 06:48:00;;;;;;;7.28;5.18;;;;;;;;;;5096188;28;20031;-73
2023/09/13 06:50:25;;;;;;;12.88;5.63;;;;;;;;;;5095983;28;20104;-76
2023/09/13 06:52:51;;;;;;;11.98;5.70;;;;;;;;;;5092201;28;20122;-72
2023/09/13 06:55:17;;;;;;;18.40;5.68;;;;;;;;;;5089774;28;20024;-76
2023/09/13 06:57:42;;;;;;;11.57;5.20;;;;;;;;;;5085300;28;20027;-73
2023/09/13 07:00:10;;;;;;;12.18;5.25;;;;;;;;;;5078940;28;20053;-73
2023/09/13 07:02:35;;;;;;;10.63;5.45;;;;;;;;;;5075955;28;20034;-73
2023/09/13 07:05:03;;;;;;;7.78;5.20;;;;;;;;;;5078290;28;20369;-72
2023/09/13 07:07:28;;;;;;;11.65;6.05;;;;;;;;;;5078479;28;20058;-72
2023/09/13 07:09:53;;;;;;;8.95;5.60;;;;;;;;;;5087831;28;20401;-72
2023/09/13 07:12:19;;;;;;;10.93;5.22;;;;;;;;;;5090906;28;20028;-71
2023/09/13 07:14:44;;;;;;;10.50;5.45;;;;;;;;;;5096710;28;20394;-71
2023/09/13 07:17:09;;;;;;;9.50;5.50;;;;;;;;;;5099369;28;20012;-75
2023/09/13 07:19:35;;;;;;;11.85;5.80;;;;;;;;;;5099106;28;20038;-72
2023/09/13 07:22:02;;;;;;;9.80;6.63;;;;;;;;;;5098289;28;20053;-72
2023/09/13 07:24:27;;;;;;;10.73;5.82;;;;;;;;;;5098096;28;20036;-72
2023/09/13 07:26:53;;;;;;;9.13;5.60;;;;;;;;;;5100528;28;20024;-71
2023/09/13 07:29:18;;;;;;;13.35;8.50;;;;;;;;;;5098739;28;20062;-72
2023/09/13 07:31:43;;;;;;;10.63;7.78;;;;;;;;;;5100814;28;20428;-73
2023/09/13 07:34:09;;;;;;;10.02;6.63;;;;;;;;;;5098864;28;20427;-75
2023/09/13 07:36:34;;;;;;;11.35;6.70;;;;;;;;;;5091934;28;20053;-73
2023/09/13 07:39:00;;;;;;;11.00;6.10;;;;;;;;;;5096671;28;20024;-76
2023/09/13 07:41:27;;;;;;;10.55;6.18;;;;;;;;;;5095346;28;20074;-72
2023/09/13 07:43:52;;;;;;;10.05;5.85;;;;;;;;;;5085578;28;20036;-75
2023/09/13 07:46:17;;;;;;;7.38;6.22;;;;;;;;;;5086403;28;20431;-75
2023/09/13 07:48:43;;;;;;;7.97;5.90;;;;;;;;;;5092840;28;20357;-74
2023/09/13 07:51:08;;;;;;;8.90;5.75;;;;;;;;;;5089035;28;20110;-74
2023/09/13 07:53:33;;;;;;;9.20;5.50;;;;;;;;;;5099314;28;20038;-74
2023/09/13 07:55:59;;;;;;;7.03;5.50;;;;;;;;;;5099274;28;20032;-73
2023/09/13 07:58:24;;;;;;;11.27;4.88;;;;;;;;;;5087006;28;20085;-74
2023/09/13 08:00:50;;;;;;;6.78;4.28;;;;;;;;;;5088432;28;20028;-72
2023/09/13 08:03:15;;;;;;;6.47;4.57;;;;;;;;;;5093594;28;20051;-72
2023/09/13 08:05:42;;;;;;;10.23;5.32;;;;;;;;;;5099121;28;20343;-72
2023/09/13 08:08:09;;;;;;;13.07;10.13;;;;;;;;;;5087707;28;20404;-73
2023/09/13 08:10:34;;;;;;;7.03;5.60;;;;;;;;;;5089395;28;20102;-72
2023/09/13 08:12:59;;;;;;;12.43;5.63;;;;;;;;;;5087587;28;21202;-76
2023/09/13 08:15:25;;;;;;;11.73;5.22;;;;;;;;;;5088238;28;20028;-74
2023/09/13 08:17:50;;;;;;;10.90;5.07;;;;;;;;;;5087365;28;20374;-72
2023/09/13 08:20:15;;;;;;;8.70;4.82;;;;;;;;;;5087868;28;20035;-72
2023/09/13 08:22:41;;;;;;;12.45;4.80;;;;;;;;;;5089069;28;20102;-74
2023/09/13 08:25:07;;;;;;;10.23;4.95;;;;;;;;;;5089933;28;20335;-73
2023/09/13 08:27:33;;;;;;;13.07;4.75;;;;;;;;;;5089638;28;20024;-75
2023/09/13 08:29:58;;;;;;;9.82;4.93;;;;;;;;;;5089246;28;20046;-74
2023/09/13 08:32:24;;;;;;;10.75;5.30;;;;;;;;;;5087169;28;20027;-74
2023/09/13 08:34:49;;;;;;;9.45;4.32;;;;;;;;;;5089066;28;20122;-75
2023/09/13 08:37:15;;;;;;;9.15;4.00;;;;;;;;;;5089341;28;20695;-73
2023/09/13 08:39:40;;;;;;;7.28;4.03;;;;;;;;;;5087632;28;20040;-76
2023/09/13 08:42:06;;;;;;;10.75;4.50;;;;;;;;;;5088357;28;20024;-74
2023/09/13 08:44:31;;;;;;;5.13;3.72;;;;;;;;;;5089124;28;20024;-75
2023/09/13 08:46:57;;;;;;;5.55;3.58;;;;;;;;;;5088150;28;20034;-75
2023/09/13 08:49:23;;;;;;;9.52;4.28;;;;;;;;;;5088482;28;20042;-75
2023/09/13 08:51:50;;;;;;;5.82;3.63;;;;;;;;;;5088087;28;20031;-75
2023/09/13 08:54:16;;;;;;;9.52;4.55;;;;;;;;;;5095189;28;20032;-79
2023/09/13 08:56:45;;;;;;;6.90;3.95;;;;;;;;;;5098571;28;20119;-77
2023/09/13 08:59:19;;;;;;;5.45;3.28;;;;;;;;;;5099051;28;20034;-76
2023/09/13 09:01:48;;;;;;;5.75;3.47;;;;;;;;;;5099768;28;20035;-77
2023/09/13 09:04:18;;;;;;;4.95;3.05;;;;;;;;;;5100113;28;20016;-75
2023/09/13 09:06:44;;;;;;;6.57;3.70;;;;;;;;;;5087836;28;20023;-75
2023/09/13 09:09:10;;;;;;;7.47;3.92;;;;;;;;;;5088096;27;20167;-75
2023/09/13 09:11:36;;;;;;;4.43;3.00;;;;;;;;;;5088557;28;20015;-77
2023/09/13 09:14:02;;;;;;;4.43;2.90;;;;;;;;;;5087588;28;20158;-75
2023/09/13 09:16:27;;;;;;;7.45;3.85;;;;;;;;;;5085167;28;20506;-74
2023/09/13 09:18:54;;;;;;;8.18;4.00;;;;;;;;;;5086812;28;23487;-74
2023/09/13 09:21:20;;;;;;;5.68;3.42;;;;;;;;;;5088233;28;20032;-74
2023/09/13 09:23:45;;;;;;;8.57;4.03;;;;;;;;;;5086575;28;20044;-73
2023/09/13 09:26:11;;;;;;;6.35;3.58;;;;;;;;;;5087561;28;20112;-75
2023/09/13 09:28:36;;;;;;;7.50;3.72;;;;;;;;;;5087289;28;20049;-76
2023/09/13 09:31:02;;;;;;;6.75;3.75;;;;;;;;;;5087846;27;20023;-74
2023/09/13 09:33:28;;;;;;;12.38;5.13;;;;;;;;;;5087394;28;20212;-76
2023/09/13 09:35:55;;;;;;;6.57;3.85;;;;;;;;;;5088068;28;20106;-75
2023/09/13 09:38:21;;;;;;;6.22;4.47;;;;;;;;;;5087426;28;20462;-75
2023/09/13 09:40:47;;;;;;;9.73;4.43;;;;;;;;;;5088251;28;20062;-76
2023/09/13 09:43:12;;;;;;;5.60;3.60;;;;;;;;;;5088005;28;20027;-74
2023/09/13 09:45:37;;;;;;;6.28;3.33;;;;;;;;;;5086540;28;20020;-77
2023/09/13 09:48:03;;;;;;;8.25;4.22;;;;;;;;;;5086013;28;20127;-77
2023/09/13 09:50:31;;;;;;;9.10;4.68;;;;;;;;;;5087382;28;20028;-77
2023/09/13 09:52:57;;;;;;;8.50;4.00;;;;;;;;;;5087302;28;20139;-74
2023/09/13 09:55:24;;;;;;;12.23;3.70;;;;;;;;;;5086074;28;20035;-77
2023/09/13 09:57:52;;;;;;;6.30;3.40;;;;;;;;;;5087296;28;20501;-75
2023/09/13 10:00:17;;;;;;;11.35;4.35;;;;;;;;;;5086874;28;20042;-77
2023/09/13 10:02:43;;;;;;;6.40;4.00;;;;;;;;;;5084249;28;20020;-75
2023/09/13 10:05:09;;;;;;;5.55;3.15;;;;;;;;;;5089022;28;20043;-76
2023/09/13 10:07:48;;;;;;;7.70;3.97;;;;;;;;;;5087391;28;20020;-75
2023/09/13 10:10:26;;;;;;;10.70;4.78;;;;;;;;;;5097609;28;20036;-75
2023/09/13 10:12:52;;;;;;;4.57;3.35;;;;;;;;;;5102349;28;20126;-75
2023/09/13 10:15:18;;;;;;;7.60;4.72;;;;;;;;;;5100276;28;20034;-75
2023/09/13 10:17:46;;;;;;;7.05;3.60;;;;;;;;;;5100649;28;20051;-74
2023/09/13 10:20:14;;;;;;;6.55;3.25;;;;;;;;;;5100087;28;20036;-75
2023/09/13 10:22:40;;;;;;;5.07;3.60;;;;;;;;;;5101043;28;20027;-76
2023/09/13 10:25:06;;;;;;;5.10;3.30;;;;;;;;;;5101604;28;20100;-80
2023/09/13 10:27:33;;;;;;;7.13;3.28;;;;;;;;;;5091391;28;20111;-81
2023/09/13 10:30:00;;;;;;;6.47;3.72;;;;;;;;;;5085499;28;20057;-73
2023/09/13 10:32:47;;;;;;;6.25;3.55;;;;;;;;;;5083648;28;20038;-75
2023/09/13 10:35:13;;;;;;;10.68;3.97;;;;;;;;;;5095930;28;20106;-74
2023/09/13 10:37:42;;;;;;;9.40;3.58;;;;;;;;;;5100454;28;20129;-74
2023/09/13 10:40:10;;;;;;;;;;;;;;;;;;5099978;28;20139;-78
2023/09/13 10:42:39;;;;;;;6.37;3.80;;;;;;;;;;5099257;28;20352;-75
2023/09/13 10:45:06;;;;;;;7.53;3.72;;;;;;;;;;5100261;28;20063;-75
2023/09/13 10:47:32;;;;;;;8.85;3.50;;;;;;;;;;5100475;28;20417;-80
2023/09/13 10:49:59;;;;;;;6.45;3.80;;;;;;;;;;5101245;28;20338;-79
2023/09/13 10:52:24;;;;;;;8.40;4.05;;;;;;;;;;5099039;28;20172;-77
2023/09/13 10:54:51;;;;;;;7.00;3.53;;;;;;;;;;5099561;27;20035;-78
2023/09/13 10:57:16;;;;;;;7.43;3.90;;;;;;;;;;5100085;28;20027;-78
2023/09/13 10:59:42;;;;;;;7.63;3.70;;;;;;;;;;5099986;28;21122;-78
2023/09/13 11:02:08;;;;;;;5.47;3.85;;;;;;;;;;5082456;28;20276;-74
2023/09/13 11:04:34;;;;;;;7.80;3.65;;;;;;;;;;5090837;28;21064;-76
2023/09/13 11:07:01;;;;;;;10.05;4.15;;;;;;;;;;5100943;28;20024;-75
2023/09/13 11:09:27;;;;;;;7.63;3.85;;;;;;;;;;5100368;28;20115;-75
2023/09/13 11:11:55;;;;;;;8.07;3.92;;;;;;;;;;5094279;28;20399;-77
2023/09/13 11:14:27;;;;;;;11.25;7.80;;;;;;;;;;5078421;28;20054;-75
2023/09/13 11:16:53;;;;;;;7.45;4.40;;;;;;;;;;5081864;28;20040;-74
2023/09/13 11:19:25;;;;;;;8.85;4.20;;;;;;;;;;5080999;28;20016;-77
2023/09/13 11:21:52;;;;;;;10.18;4.30;;;;;;;;;;5083369;28;20371;-76
2023/09/13 11:24:36;;;;;;;12.32;6.00;;;;;;;;;;5098701;28;20123;-77
2023/09/13 11:27:11;;;;;;;10.23;6.32;;;;;;;;;;5096330;28;20459;-76
2023/09/13 11:29:42;;;;;;;10.98;4.20;;;;;;;;;;5098294;28;20030;-75
2023/09/13 11:32:14;;;;;;;8.75;4.03;;;;;;;;;;5100482;28;20084;-74
2023/09/13 11:34:39;;;;;;;6.97;4.20;;;;;;;;;;5100196;28;20398;-74
2023/09/13 11:37:05;;;;;;;11.98;5.95;;;;;;;;;;5102345;28;20171;-77
2023/09/13 11:39:31;;;;;;;17.15;14.52;;;;;;;;;;5102301;28;20055;-76
2023/09/13 11:41:57;;;;;;;9.57;5.43;;;;;;;;;;5103135;28;21126;-76
2023/09/13 11:44:23;;;;;;;9.25;6.45;;;;;;;;;;5104925;28;20085;-77
2023/09/13 11:46:49;;;;;;;5.53;3.88;;;;;;;;;;5104343;28;20020;-75
2023/09/13 11:49:23;;;;;;;10.23;4.30;;;;;;;;;;5102348;28;20439;-77
2023/09/13 11:52:06;;;;;;;7.65;3.97;;;;;;;;;;5102670;28;20019;-76
2023/09/13 11:54:31;;;;;;;6.55;4.20;;;;;;;;;;5101764;28;20043;-76
2023/09/13 11:57:02;;;;;;;9.48;4.07;;;;;;;;;;5103422;28;20331;-77
2023/09/13 11:59:31;;;;;;;7.72;4.38;;;;;;;;;;5103633;28;20027;-75
2023/09/13 12:01:56;;;;;;;;;;;;;;;;;;5102354;28;20028;-77
2023/09/13 12:04:25;;;;;;;5.43;3.63;;;;;;;;;;5101188;28;20315;-75
2023/09/13 12:06:52;;;;;;;9.43;4.22;;;;;;;;;;5102269;28;20122;-76
2023/09/13 12:09:18;;;;;;;11.00;4.35;;;;;;;;;;5103535;28;20027;-77
2023/09/13 12:11:44;;;;;;;7.03;3.97;;;;;;;;;;5098733;28;20015;-76
2023/09/13 12:14:10;;;;;;;6.50;3.65;;;;;;;;;;5103135;28;20032;-77
2023/09/13 12:16:38;;;;;;;11.95;4.70;;;;;;;;;;5103783;28;20045;-76
2023/09/13 12:19:03;;;;;;;;;;;;;;;;;;5103722;28;20039;-75
2023/09/13 12:21:29;;;;;;;8.20;4.00;;;;;;;;;;5103392;28;19911;-77
2023/09/13 12:23:54;;;;;;;10.93;4.25;;;;;;;;;;5104100;28;20339;-77
2023/09/13 12:26:20;;;;;;;9.20;4.00;;;;;;;;;;5103800;28;20027;-77
2023/09/13 12:28:45;;;;;;;7.25;3.80;;;;;;;;;;5104157;28;20020;-76
2023/09/13 12:31:12;;;;;;;8.27;3.83;;;;;;;;;;5104459;28;20118;-76
2023/09/13 12:33:41;;;;;;;9.27;4.15;;;;;;;;;;5102528;28;20039;-77
2023/09/13 12:36:07;;;;;;;10.35;4.30;;;;;;;;;;5102806;28;20391;-76
2023/09/13 12:38:43;;;;;;;10.23;5.80;;;;;;;;;;5103189;28;20024;-78
2023/09/13 12:41:12;;;;;;;9.20;4.03;;;;;;;;;;5105080;28;20070;-77
2023/09/13 12:43:40;;;;;;;6.15;4.32;;;;;;;;;;5103685;28;20454;-76
2023/09/13 12:46:06;;;;;;;10.02;3.50;;;;;;;;;;5104493;28;20032;-76
2023/09/13 12:48:32;;;;;;;8.05;3.90;;;;;;;;;;5102707;28;20034;-76
2023/09/13 12:50:59;;;;;;;8.90;4.10;;;;;;;;;;5102213;28;20031;-77
2023/09/13 12:53:27;;;;;;;9.73;3.78;;;;;;;;;;5103769;28;20027;-76
2023/09/13 12:55:52;;;;;;;8.43;3.55;;;;;;;;;;5102200;27;20100;-76
2023/09/13 12:58:18;;;;;;;6.00;4.15;;;;;;;;;;5101279;28;20050;-75
2023/09/13 13:00:52;;;;;;;9.23;3.72;;;;;;;;;;5103610;28;20389;-76
2023/09/13 13:03:24;;;;;;;7.60;3.08;;;;;;;;;;5102115;28;20412;-76
2023/09/13 13:05:50;;;;;;;7.70;3.55;;;;;;;;;;5101475;28;20020;-77
2023/09/13 13:08:16;;;;;;;5.78;3.88;;;;;;;;;;5100658;28;20043;-75
2023/09/13 13:11:00;;;;;;;8.40;5.00;;;;;;;;;;5092809;28;20032;-74
2023/09/13 13:13:38;;;;;;;8.02;3.50;;;;;;;;;;5094288;28;20450;-74
2023/09/13 13:16:16;;;;;;;9.43;4.30;;;;;;;;;;5092805;28;20115;-76
2023/09/13 13:18:51;;;;;;;7.40;3.50;;;;;;;;;;5100923;28;20020;-79
2023/09/13 13:21:17;;;;;;;8.88;3.17;;;;;;;;;;5089759;28;20064;-75
2023/09/13 13:23:45;;;;;;;8.75;3.67;;;;;;;;;;5090862;28;20381;-76
2023/09/13 13:26:11;;;;;;;6.35;3.13;;;;;;;;;;5099273;28;20113;-73
2023/09/13 13:28:37;;;;;;;6.10;3.58;;;;;;;;;;5102161;27;20427;-75
2023/09/13 13:31:02;;;;;;;6.80;3.53;;;;;;;;;;5099512;28;20630;-76
2023/09/13 13:33:27;;;;;;;6.03;3.30;;;;;;;;;;5100064;28;20610;-75
2023/09/13 13:35:56;;;;;;;6.32;3.67;;;;;;;;;;5094757;28;20432;-74
2023/09/13 13:38:21;;;;;;;8.20;3.90;;;;;;;;;;5095109;28;20023;-76
2023/09/13 13:40:46;;;;;;;8.30;3.47;;;;;;;;;;5101577;28;20357;-74
2023/09/13 13:43:12;;;;;;;6.93;3.22;;;;;;;;;;5100950;28;20032;-75
2023/09/13 13:45:37;;;;;;;6.63;3.35;;;;;;;;;;5100217;28;20023;-77
2023/09/13 13:48:02;;;;;;;5.78;3.30;;;;;;;;;;5091756;28;20085;-74
2023/09/13 13:50:28;;;;;;;9.55;3.00;;;;;;;;;;5100824;28;20027;-75
2023/09/13 13:52:53;;;;;;;6.80;3.42;;;;;;;;;;5099698;28;20642;-72
2023/09/13 13:55:19;;;;;;;6.72;3.17;;;;;;;;;;5101894;27;20089;-75
2023/09/13 13:57:45;;;;;;;9.75;3.78;;;;;;;;;;5101643;28;20095;-75
2023/09/13 14:00:10;;;;;;;6.25;3.55;;;;;;;;;;5101848;28;20015;-74
2023/09/13 14:02:36;;;;;;;7.03;3.53;;;;;;;;;;5101406;28;20051;-74
2023/09/13 14:05:03;;;;;;;5.00;3.28;;;;;;;;;;5088577;28;20480;-75
2023/09/13 14:07:29;;;;;;;15.43;3.55;;;;;;;;;;5101500;28;20023;-74
2023/09/13 14:09:54;;;;;;;5.20;3.25;;;;;;;;;;5100273;28;20080;-78
2023/09/13 14:12:19;;;;;;;8.57;3.60;;;;;;;;;;5089056;28;20024;-75
2023/09/13 14:14:44;;;;;;;7.68;3.60;;;;;;;;;;5099768;28;20028;-74
2023/09/13 14:17:10;;;;;;;9.25;3.45;;;;;;;;;;5091475;28;20030;-75
2023/09/13 14:19:35;;;;;;;7.25;3.47;;;;;;;;;;5087235;28;20012;-76
2023/09/13 14:22:01;;;;;;;5.78;3.42;;;;;;;;;;5089433;28;20059;-74
2023/09/13 14:24:26;;;;;;;7.68;4.00;;;;;;;;;;5086871;28;20056;-77
2023/09/13 14:26:51;;;;;;;9.20;3.90;;;;;;;;;;5088033;28;20058;-74
2023/09/13 14:29:17;;;;;;;6.15;3.08;;;;;;;;;;5086966;28;20026;-76
2023/09/13 14:31:42;;;;;;;6.00;3.40;;;;;;;;;;5087868;28;20034;-74
2023/09/13 14:34:08;;;;;;;7.22;3.25;;;;;;;;;;5098996;28;20053;-72
2023/09/13 14:36:33;;;;;;;8.20;3.72;;;;;;;;;;5100046;28;20031;-75